Time;durP1;ratioP1;P1;durP2;ratioP2;P2;SDS_P1;SDS_P2;PMS_P1;PMS_P2;Temp;Humidity;BMP_temperature;BMP_pressure;BME280_temperature;BME280_humidity;BME280_pressure;Samples;Min_cycle;Max_cycle;Signal;HPM_P1;HPM_P2
2022/03/11 00:01:22;;;;;;;3.60;2.93;;;2.60;80.50;;;;;;5066676;28;20208;-59
2022/03/11 00:04:06;;;;;;;3.37;2.97;;;2.60;80.30;;;;;;5065320;28;20236;-63
2022/03/11 00:06:50;;;;;;;2.13;1.33;;;2.60;80.40;;;;;;5063689;28;20198;-60
2022/03/11 00:09:35;;;;;;;3.03;1.73;;;2.50;80.30;;;;;;5066652;28;20310;-55
2022/03/11 00:12:20;;;;;;;3.63;1.43;;;2.40;80.50;;;;;;5063977;28;20280;-56
2022/03/11 00:15:08;;;;;;;3.43;2.23;;;2.30;80.80;;;;;;5064723;28;20349;-56
2022/03/11 00:17:52;;;;;;;4.73;2.33;;;2.20;81.00;;;;;;5065953;28;20258;-52
2022/03/11 00:20:37;;;;;;;4.47;2.63;;;2.20;81.50;;;;;;5063033;28;20269;-60
2022/03/11 00:23:21;;;;;;;2.70;1.80;;;2.20;81.70;;;;;;5066976;28;20201;-62
2022/03/11 00:26:06;;;;;;;4.33;2.80;;;2.10;81.60;;;;;;5069842;28;20209;-62
2022/03/11 00:28:50;;;;;;;3.73;2.47;;;2.10;81.80;;;;;;5067041;28;20232;-61
2022/03/11 00:31:35;;;;;;;2.90;1.77;;;2.00;81.90;;;;;;5069953;28;20249;-53
2022/03/11 00:34:19;;;;;;;2.37;1.60;;;1.90;82.30;;;;;;5068387;28;20197;-61
2022/03/11 00:37:04;;;;;;;3.40;2.53;;;1.80;82.50;;;;;;5067270;28;20232;-57
2022/03/11 00:39:48;;;;;;;3.30;2.03;;;1.80;83.00;;;;;;5070000;28;20193;-57
2022/03/11 00:42:33;;;;;;;3.20;1.57;;;1.80;83.10;;;;;;5067406;28;20185;-55
2022/03/11 00:45:18;;;;;;;3.50;1.77;;;1.80;83.30;;;;;;5068255;28;20207;-61
2022/03/11 00:48:02;;;;;;;2.07;1.87;;;1.70;83.70;;;;;;5070362;28;20222;-59
2022/03/11 00:50:47;;;;;;;2.00;1.90;;;1.60;83.80;;;;;;5066545;28;20264;-61
2022/03/11 00:53:32;;;;;;;4.33;2.67;;;1.60;84.20;;;;;;5069190;28;20661;-60
2022/03/11 00:56:16;;;;;;;2.40;1.87;;;1.60;84.30;;;;;;5069189;28;20243;-61
2022/03/11 00:59:00;;;;;;;1.93;1.83;;;1.50;84.70;;;;;;5066341;28;20185;-52
2022/03/11 01:01:45;;;;;;;4.43;1.97;;;1.50;85.10;;;;;;5069091;28;20204;-53
2022/03/11 01:04:30;;;;;;;3.30;1.70;;;1.40;85.40;;;;;;5067905;28;20232;-63
2022/03/11 01:07:14;;;;;;;3.20;1.57;;;1.30;85.50;;;;;;5066857;28;20224;-54
2022/03/11 01:09:59;;;;;;;2.80;1.87;;;1.30;85.70;;;;;;5069345;28;20272;-56
2022/03/11 01:12:43;;;;;;;4.57;2.30;;;1.30;85.80;;;;;;5066873;28;20228;-57
2022/03/11 01:15:28;;;;;;;6.37;2.63;;;1.30;86.10;;;;;;5067665;28;20197;-55
2022/03/11 01:18:12;;;;;;;6.93;2.70;;;1.20;86.20;;;;;;5069100;28;20196;-59
2022/03/11 01:20:56;;;;;;;3.53;2.47;;;1.20;86.30;;;;;;5065451;28;20194;-60
2022/03/11 01:23:41;;;;;;;2.50;1.67;;;1.20;86.40;;;;;;5068564;28;20194;-60
2022/03/11 01:26:25;;;;;;;2.77;1.73;;;1.10;86.60;;;;;;5068822;28;20196;-61
2022/03/11 01:29:10;;;;;;;3.90;2.80;;;1.00;86.70;;;;;;5065798;28;20279;-59
2022/03/11 01:31:54;;;;;;;2.77;2.00;;;1.00;87.00;;;;;;5068984;28;20295;-58
2022/03/11 01:34:38;;;;;;;3.20;1.70;;;1.10;87.00;;;;;;5066159;28;20198;-61
2022/03/11 01:37:23;;;;;;;4.83;2.57;;;1.00;86.30;;;;;;5066306;28;20225;-60
2022/03/11 01:40:08;;;;;;;1.27;1.13;;;1.00;86.00;;;;;;5069351;28;20189;-55
2022/03/11 01:42:52;;;;;;;2.53;2.27;;;1.00;85.90;;;;;;5065887;28;20217;-61
2022/03/11 01:45:37;;;;;;;2.87;1.57;;;0.90;86.70;;;;;;5067648;28;20297;-60
2022/03/11 01:48:21;;;;;;;3.67;2.20;;;0.90;86.70;;;;;;5068920;28;20190;-52
2022/03/11 01:51:05;;;;;;;4.00;2.37;;;0.90;87.50;;;;;;5065266;28;20206;-52
2022/03/11 01:53:50;;;;;;;3.10;2.77;;;0.90;87.90;;;;;;5067897;28;20264;-53
2022/03/11 01:56:36;;;;;;;3.70;2.07;;;0.90;88.10;;;;;;5067750;28;20218;-57
2022/03/11 01:59:21;;;;;;;7.20;3.80;;;0.80;88.10;;;;;;5065222;28;20225;-60
2022/03/11 02:02:06;;;;;;;7.63;4.03;;;0.90;89.50;;;;;;5068522;28;20197;-54
2022/03/11 02:04:50;;;;;;;3.20;2.47;;;0.90;88.70;;;;;;5066484;28;20228;-56
2022/03/11 02:07:35;;;;;;;4.40;2.43;;;0.90;88.40;;;;;;5065659;28;20240;-60
2022/03/11 02:10:19;;;;;;;3.53;1.47;;;0.80;87.80;;;;;;5068529;28;20237;-60
2022/03/11 02:13:05;;;;;;;4.77;2.07;;;0.70;87.80;;;;;;5065180;28;20192;-62
2022/03/11 02:15:50;;;;;;;3.43;1.97;;;0.70;87.70;;;;;;5066944;28;20188;-55
2022/03/11 02:18:34;;;;;;;2.53;2.10;;;0.60;87.90;;;;;;5067940;28;20206;-59
2022/03/11 02:21:20;;;;;;;3.83;2.53;;;0.60;87.40;;;;;;5064587;28;20236;-54
2022/03/11 02:24:07;;;;;;;4.70;2.17;;;0.60;87.50;;;;;;5067585;28;20190;-61
2022/03/11 02:26:51;;;;;;;5.27;2.10;;;0.60;88.00;;;;;;5067573;28;20228;-55
2022/03/11 02:29:37;;;;;;;4.37;2.27;;;0.60;87.20;;;;;;5064494;28;20220;-57
2022/03/11 02:32:22;;;;;;;4.43;2.30;;;0.50;86.90;;;;;;5068120;28;20192;-62
2022/03/11 02:35:07;;;;;;;2.50;1.27;;;0.50;86.90;;;;;;5066673;28;20219;-61
2022/03/11 02:37:52;;;;;;;4.63;2.43;;;0.50;86.50;;;;;;5065316;28;20455;-62
2022/03/11 02:40:36;;;;;;;1.43;1.33;;;0.50;86.20;;;;;;5068314;28;20295;-59
2022/03/11 02:43:22;;;;;;;2.27;2.07;;;0.50;85.70;;;;;;5064712;28;20201;-56
2022/03/11 02:46:06;;;;;;;3.93;1.80;;;0.50;84.70;;;;;;5065420;28;20201;-54
2022/03/11 02:48:50;;;;;;;1.60;1.50;;;0.50;84.30;;;;;;5067177;28;20232;-56
2022/03/11 02:51:34;;;;;;;4.23;2.43;;;0.50;84.40;;;;;;5064165;28;20240;-56
2022/03/11 02:54:19;;;;;;;1.73;1.63;;;0.50;84.20;;;;;;5067211;28;20216;-60
2022/03/11 02:57:03;;;;;;;1.57;1.47;;;0.40;84.20;;;;;;5066843;28;20190;-60
2022/03/11 02:59:48;;;;;;;1.40;1.30;;;0.40;84.40;;;;;;5063859;28;20186;-51
2022/03/11 03:02:32;;;;;;;1.77;1.67;;;0.30;84.30;;;;;;5067333;28;20202;-61
2022/03/11 03:05:17;;;;;;;2.03;1.83;;;0.20;84.30;;;;;;5065324;28;20210;-58
2022/03/11 03:08:01;;;;;;;1.40;1.13;;;0.20;84.20;;;;;;5065211;28;20193;-62
2022/03/11 03:10:46;;;;;;;1.00;1.00;;;0.10;84.30;;;;;;5067156;28;20232;-59
2022/03/11 03:13:31;;;;;;;2.30;2.03;;;0.10;86.00;;;;;;5064122;28;20189;-58
2022/03/11 03:16:15;;;;;;;3.83;1.90;;;0.00;86.30;;;;;;5066113;28;20209;-59
2022/03/11 03:18:59;;;;;;;3.20;1.93;;;-0.10;90.00;;;;;;5066982;28;20201;-57
2022/03/11 03:21:44;;;;;;;1.83;1.03;;;-0.10;90.50;;;;;;5063996;28;20202;-57
2022/03/11 03:24:28;;;;;;;3.83;2.67;;;-0.20;91.00;;;;;;5066607;28;20244;-58
2022/03/11 03:27:12;;;;;;;4.37;2.27;;;-0.20;91.20;;;;;;5066389;28;20205;-64
2022/03/11 03:29:57;;;;;;;5.17;3.20;;;-0.30;91.50;;;;;;5063581;28;20220;-58
2022/03/11 03:32:42;;;;;;;3.50;3.20;;;-0.40;91.50;;;;;;5066880;28;20204;-62
2022/03/11 03:35:27;;;;;;;3.60;2.00;;;-0.40;91.80;;;;;;5065127;28;20208;-63
2022/03/11 03:38:12;;;;;;;7.27;3.53;;;-0.50;91.80;;;;;;5064194;28;20224;-61
2022/03/11 03:40:56;;;;;;;6.37;3.60;;;-0.40;91.70;;;;;;5067103;28;20217;-54
2022/03/11 03:43:40;;;;;;;4.17;2.73;;;-0.60;91.60;;;;;;5063684;28;20197;-61
2022/03/11 03:46:25;;;;;;;4.47;2.10;;;-0.60;91.60;;;;;;5065726;28;20278;-54
2022/03/11 03:49:09;;;;;;;4.40;1.80;;;-0.70;91.60;;;;;;5066141;28;20279;-53
2022/03/11 03:51:54;;;;;;;3.00;1.37;;;-0.60;91.60;;;;;;5062870;28;20296;-55
2022/03/11 03:54:42;;;;;;;1.23;1.13;;;-0.60;91.30;;;;;;5065959;28;20244;-52
2022/03/11 03:57:27;;;;;;;3.10;1.87;;;-0.70;90.80;;;;;;5064764;28;20237;-51
2022/03/11 04:00:12;;;;;;;3.23;1.80;;;-0.70;90.80;;;;;;5063827;28;20194;-58
2022/03/11 04:02:56;;;;;;;7.30;2.10;;;-0.70;90.80;;;;;;5066492;28;20288;-60
2022/03/11 04:05:40;;;;;;;4.50;1.93;;;-0.70;90.90;;;;;;5064416;28;20193;-62
2022/03/11 04:08:25;;;;;;;1.13;1.03;;;-0.70;90.60;;;;;;5064384;28;20194;-56
2022/03/11 04:11:10;;;;;;;2.70;1.50;;;-0.80;90.40;;;;;;5066968;28;20289;-59
2022/03/11 04:13:55;;;;;;;1.53;1.43;;;-0.80;90.40;;;;;;5064286;28;20192;-62
2022/03/11 04:16:40;;;;;;;1.43;1.33;;;-0.90;90.30;;;;;;5065569;28;20201;-61
2022/03/11 04:19:24;;;;;;;3.17;2.40;;;-1.00;90.30;;;;;;5066382;28;20185;-63
2022/03/11 04:22:08;;;;;;;2.47;1.80;;;-1.10;90.30;;;;;;5062704;28;20256;-61
2022/03/11 04:24:53;;;;;;;2.63;1.43;;;-1.20;90.40;;;;;;5065973;28;20189;-59
2022/03/11 04:27:37;;;;;;;2.30;1.60;;;-1.40;90.50;;;;;;5065213;28;20221;-62
2022/03/11 04:30:22;;;;;;;4.80;1.63;;;-1.40;90.70;;;;;;5062798;28;20229;-56
2022/03/11 04:33:07;;;;;;;2.13;1.97;;;-1.40;90.70;;;;;;5066099;28;20197;-58
2022/03/11 04:35:51;;;;;;;2.00;1.73;;;-1.30;90.70;;;;;;5064456;28;20190;-63
2022/03/11 04:38:35;;;;;;;1.30;1.20;;;-1.30;90.60;;;;;;5064148;28;20204;-57
2022/03/11 04:41:19;;;;;;;1.47;1.37;;;-1.40;90.40;;;;;;5066909;28;20201;-57
2022/03/11 04:44:04;;;;;;;2.20;2.03;;;-1.30;90.50;;;;;;5063271;28;20277;-57
2022/03/11 04:46:49;;;;;;;3.43;1.73;;;-1.30;90.40;;;;;;5065066;28;20193;-57
2022/03/11 04:49:34;;;;;;;2.93;1.53;;;-1.30;90.20;;;;;;5065708;28;20213;-61
2022/03/11 04:52:18;;;;;;;3.00;2.57;;;-1.30;89.50;;;;;;5062682;28;20232;-52
2022/03/11 04:55:03;;;;;;;2.20;1.17;;;-1.30;89.50;;;;;;5065871;28;20212;-57
2022/03/11 04:57:47;;;;;;;2.77;1.20;;;-1.30;89.00;;;;;;5064925;28;20213;-57
2022/03/11 05:00:31;;;;;;;1.20;1.17;;;-1.30;89.20;;;;;;5062628;28;20249;-50
2022/03/11 05:03:16;;;;;;;7.73;4.13;;;-1.40;89.00;;;;;;5065960;28;20197;-61
2022/03/11 05:06:00;;;;;;;12.40;7.27;;;-1.40;89.60;;;;;;5063195;28;20313;-63
2022/03/11 05:08:44;;;;;;;1.77;1.67;;;-1.40;90.40;;;;;;5064270;28;20194;-57
2022/03/11 05:11:29;;;;;;;4.53;2.17;;;-1.10;92.80;;;;;;5070129;28;20206;-57
2022/03/11 05:14:13;;;;;;;1.60;1.27;;;-1.10;93.10;;;;;;5065955;28;20247;-60
2022/03/11 05:16:58;;;;;;;4.90;0.90;;;-1.00;92.50;;;;;;5069097;28;20212;-55
2022/03/11 05:19:42;;;;;;;1.83;1.83;;;-0.70;92.00;;;;;;5068967;28;20193;-58
2022/03/11 05:22:27;;;;;;;0.57;0.57;;;-0.60;92.40;;;;;;5065749;28;20217;-53
2022/03/11 05:25:11;;;;;;;3.30;0.70;;;-0.50;91.80;;;;;;5069638;28;20189;-59
2022/03/11 05:27:56;;;;;;;4.13;1.63;;;-0.40;91.50;;;;;;5068016;28;20213;-62
2022/03/11 05:30:40;;;;;;;4.17;1.80;;;-0.60;90.00;;;;;;5066121;28;20233;-61
2022/03/11 05:33:25;;;;;;;1.37;1.10;;;-0.50;90.30;;;;;;5069196;28;20682;-59
2022/03/11 05:36:10;;;;;;;1.30;1.30;;;-0.50;87.80;;;;;;5068831;28;20212;-61
2022/03/11 05:38:54;;;;;;;1.13;1.10;;;-0.80;85.40;;;;;;5072796;28;20250;-54
2022/03/11 05:41:38;;;;;;;7.53;2.47;;;-0.90;85.90;;;;;;5075741;28;20204;-58
2022/03/11 05:44:23;;;;;;;3.33;2.00;;;-1.00;85.30;;;;;;5071240;28;20318;-56
2022/03/11 05:47:09;;;;;;;3.50;1.27;;;-1.10;85.10;;;;;;5074735;28;20253;-60
2022/03/11 05:49:54;;;;;;;2.10;0.80;;;-1.30;85.70;;;;;;5073480;28;20308;-62
2022/03/11 05:52:40;;;;;;;2.93;2.53;;;-1.20;85.70;;;;;;5071000;28;20262;-60
2022/03/11 05:55:26;;;;;;;1.03;1.00;;;-1.20;85.30;;;;;;5074903;28;20259;-60
2022/03/11 05:58:10;;;;;;;1.97;1.87;;;-1.20;85.10;;;;;;5073447;28;20220;-62
2022/03/11 06:00:54;;;;;;;1.50;1.40;;;-1.20;85.30;;;;;;5071496;28;20189;-61
2022/03/11 06:03:38;;;;;;;0.90;0.90;;;-1.10;85.20;;;;;;5074378;28;20267;-60
2022/03/11 06:06:22;;;;;;;2.60;1.57;;;-1.10;85.70;;;;;;5071819;28;20193;-60
2022/03/11 06:09:08;;;;;;;1.33;0.83;;;-1.10;84.30;;;;;;5072875;28;20209;-55
2022/03/11 06:11:53;;;;;;;1.00;0.97;;;-1.10;84.10;;;;;;5074780;28;20277;-59
2022/03/11 06:14:37;;;;;;;2.83;1.10;;;-1.10;83.90;;;;;;5071062;28;20276;-62
2022/03/11 06:17:22;;;;;;;3.90;1.77;;;-1.10;83.90;;;;;;5073503;28;20213;-58
2022/03/11 06:20:08;;;;;;;2.70;1.30;;;-1.00;84.30;;;;;;5073744;28;20220;-55
2022/03/11 06:22:53;;;;;;;2.37;1.80;;;-1.00;84.30;;;;;;5070910;28;20204;-52
2022/03/11 06:25:37;;;;;;;0.70;0.70;;;-1.00;84.00;;;;;;5073714;28;20243;-55
2022/03/11 06:28:21;;;;;;;0.70;0.70;;;-1.00;83.50;;;;;;5072390;28;20201;-52
2022/03/11 06:31:08;;;;;;;10.27;0.80;;;-0.90;83.60;;;;;;5070803;28;20263;-52
2022/03/11 06:33:53;;;;;;;1.60;1.50;;;-0.90;83.10;;;;;;5073690;28;20196;-56
2022/03/11 06:36:37;;;;;;;2.40;1.80;;;-0.90;83.00;;;;;;5071115;28;20256;-60
2022/03/11 06:39:21;;;;;;;1.50;0.73;;;-0.80;83.30;;;;;;5071903;28;20205;-61
2022/03/11 06:42:06;;;;;;;1.37;1.17;;;-0.80;82.90;;;;;;5074094;28;20311;-54
2022/03/11 06:44:51;;;;;;;2.47;0.67;;;-0.80;82.60;;;;;;5070010;28;20193;-63
2022/03/11 06:47:35;;;;;;;3.93;1.10;;;-0.70;82.00;;;;;;5072856;28;20244;-50
2022/03/11 06:50:20;;;;;;;1.70;1.57;;;-0.70;82.30;;;;;;5072939;28;20252;-55
2022/03/11 06:53:04;;;;;;;2.47;1.60;;;-0.60;81.70;;;;;;5070026;28;20185;-55
2022/03/11 06:55:49;;;;;;;0.90;0.90;;;-0.50;82.10;;;;;;5073531;28;20250;-57
2022/03/11 06:58:33;;;;;;;0.90;0.90;;;-0.50;81.60;;;;;;5071937;28;20262;-63
2022/03/11 07:01:18;;;;;;;3.43;1.50;;;-0.50;80.90;;;;;;5070432;28;20197;-56
2022/03/11 07:04:02;;;;;;;2.30;0.90;;;-0.40;81.00;;;;;;5073754;28;20224;-53
2022/03/11 07:06:47;;;;;;;2.13;1.47;;;-0.30;80.50;;;;;;5070303;28;20182;-56
2022/03/11 07:09:31;;;;;;;1.60;1.47;;;-0.20;80.60;;;;;;5072317;28;20239;-51
2022/03/11 07:12:16;;;;;;;1.20;0.87;;;-0.30;80.40;;;;;;5073964;28;20207;-50
2022/03/11 07:15:01;;;;;;;2.03;1.43;;;-0.20;80.30;;;;;;5071427;28;20189;-48
2022/03/11 07:17:46;;;;;;;2.47;2.03;;;-0.10;80.30;;;;;;5072920;28;20273;-57
2022/03/11 07:20:30;;;;;;;1.57;1.13;;;0.00;81.30;;;;;;5072647;28;20251;-58
2022/03/11 07:23:14;;;;;;;1.90;1.07;;;0.00;82.60;;;;;;5069609;28;20205;-61
2022/03/11 07:25:58;;;;;;;1.67;1.33;;;0.00;80.70;;;;;;5073264;28;20204;-53
2022/03/11 07:28:43;;;;;;;1.87;1.20;;;0.20;79.60;;;;;;5071849;28;20255;-55
2022/03/11 07:31:27;;;;;;;2.30;1.50;;;0.40;81.90;;;;;;5070948;28;20208;-54
2022/03/11 07:34:12;;;;;;;1.00;1.00;;;0.50;81.80;;;;;;5072442;28;20192;-50
2022/03/11 07:36:57;;;;;;;1.37;1.30;;;0.50;78.60;;;;;;5070277;28;20307;-49
2022/03/11 07:39:42;;;;;;;1.60;0.90;;;0.60;78.00;;;;;;5071902;28;20238;-52
2022/03/11 07:42:27;;;;;;;1.20;1.10;;;0.70;77.20;;;;;;5073466;28;20286;-52
2022/03/11 07:45:15;;;;;;;5.00;1.50;;;0.80;77.40;;;;;;5070013;28;20212;-58
2022/03/11 07:47:59;;;;;;;3.50;1.60;;;0.90;77.30;;;;;;5072981;28;20299;-58
2022/03/11 07:50:44;;;;;;;0.80;0.80;;;1.00;76.20;;;;;;5072031;28;20228;-55
2022/03/11 07:53:28;;;;;;;1.17;1.17;;;1.00;76.20;;;;;;5069601;28;20251;-52
2022/03/11 07:56:14;;;;;;;1.30;1.10;;;1.10;75.40;;;;;;5072597;28;20238;-53
2022/03/11 07:58:59;;;;;;;1.57;0.80;;;1.20;75.00;;;;;;5071733;28;20192;-54
2022/03/11 08:01:44;;;;;;;3.20;1.63;;;1.20;74.70;;;;;;5070500;28;20197;-52
2022/03/11 08:04:32;;;;;;;2.93;1.27;;;1.30;74.10;;;;;;5072761;28;20218;-54
2022/03/11 08:07:16;;;;;;;0.63;0.63;;;1.50;74.60;;;;;;5069998;28;20207;-54
2022/03/11 08:10:01;;;;;;;1.17;1.07;;;1.60;73.90;;;;;;5070993;28;20227;-49
2022/03/11 08:12:45;;;;;;;1.83;1.43;;;1.60;73.70;;;;;;5072971;28;20220;-54
2022/03/11 08:15:30;;;;;;;1.57;1.27;;;1.80;73.30;;;;;;5069408;28;20196;-62
2022/03/11 08:18:14;;;;;;;0.97;0.93;;;1.80;73.40;;;;;;5071756;28;20197;-54
2022/03/11 08:20:59;;;;;;;3.10;1.73;;;1.90;73.80;;;;;;5071903;28;20251;-63
2022/03/11 08:23:44;;;;;;;1.00;0.83;;;2.10;73.30;;;;;;5068796;28;20228;-52
2022/03/11 08:26:28;;;;;;;0.67;0.67;;;2.20;73.10;;;;;;5072195;28;20277;-59
2022/03/11 08:29:12;;;;;;;1.40;1.30;;;2.40;72.00;;;;;;5070460;28;20189;-61
2022/03/11 08:31:57;;;;;;;1.83;1.60;;;2.50;71.10;;;;;;5069133;28;20247;-62
2022/03/11 08:34:41;;;;;;;2.07;0.67;;;2.60;70.80;;;;;;5071919;28;20220;-57
2022/03/11 08:37:25;;;;;;;1.93;1.57;;;2.70;70.20;;;;;;5068464;28;20359;-61
2022/03/11 08:40:11;;;;;;;0.83;0.83;;;2.80;70.20;;;;;;5067254;28;20193;-52
2022/03/11 08:42:56;;;;;;;7.90;2.97;;;3.00;69.10;;;;;;5072096;28;20273;-60
2022/03/11 08:45:40;;;;;;;3.17;1.57;;;3.20;68.30;;;;;;5078258;28;20192;-62
2022/03/11 08:48:25;;;;;;;1.63;0.90;;;3.50;68.10;;;;;;5072869;28;20273;-57
2022/03/11 08:51:10;;;;;;;2.77;1.20;;;3.80;67.70;;;;;;5072255;28;20216;-53
2022/03/11 08:53:55;;;;;;;2.17;1.07;;;4.00;66.60;;;;;;5068676;28;20271;-60
2022/03/11 08:56:40;;;;;;;3.17;1.33;;;4.30;65.70;;;;;;5074591;28;20272;-61
2022/03/11 08:59:24;;;;;;;1.97;1.43;;;4.40;65.20;;;;;;5071362;28;20188;-62
2022/03/11 09:02:09;;;;;;;2.70;1.57;;;4.50;64.60;;;;;;5070416;28;20189;-63
2022/03/11 09:04:53;;;;;;;2.53;1.20;;;4.60;64.90;;;;;;5074571;28;20189;-51
2022/03/11 09:07:38;;;;;;;2.70;1.47;;;4.80;64.00;;;;;;5070437;28;20216;-53
2022/03/11 09:10:22;;;;;;;1.73;1.27;;;4.90;63.90;;;;;;5072291;28;20263;-56
2022/03/11 09:13:07;;;;;;;4.20;1.60;;;5.10;63.20;;;;;;5075640;28;20220;-61
2022/03/11 09:15:52;;;;;;;2.40;1.27;;;5.00;63.70;;;;;;5071674;28;20298;-52
2022/03/11 09:18:36;;;;;;;1.80;1.20;;;5.30;63.50;;;;;;5074261;28;20197;-51
2022/03/11 09:21:20;;;;;;;1.63;1.33;;;5.70;62.70;;;;;;5073911;28;20201;-54
2022/03/11 09:24:05;;;;;;;2.17;0.90;;;6.00;61.70;;;;;;5071191;28;20189;-60
2022/03/11 09:26:51;;;;;;;1.87;1.33;;;6.20;61.30;;;;;;5075761;28;20205;-58
2022/03/11 09:29:36;;;;;;;1.90;1.10;;;6.70;59.60;;;;;;5071903;28;20225;-54
2022/03/11 09:32:20;;;;;;;1.63;1.47;;;7.00;59.20;;;;;;5072178;28;20189;-48
2022/03/11 09:35:08;;;;;;;1.57;1.20;;;7.90;58.70;;;;;;5073528;28;20193;-50
2022/03/11 09:37:53;;;;;;;2.67;1.30;;;8.00;57.30;;;;;;5071747;28;20325;-57
2022/03/11 09:40:41;;;;;;;1.77;1.53;;;8.30;56.90;;;;;;5072245;28;20196;-63
2022/03/11 09:43:26;;;;;;;3.87;1.70;;;8.30;56.20;;;;;;5074505;28;20254;-54
2022/03/11 09:46:11;;;;;;;3.30;1.70;;;8.70;56.00;;;;;;5070269;28;20306;-51
2022/03/11 09:48:56;;;;;;;1.70;1.60;;;8.80;56.10;;;;;;5072378;28;20313;-52
2022/03/11 09:51:41;;;;;;;1.70;1.47;;;8.50;55.20;;;;;;5070081;28;20208;-56
2022/03/11 09:54:25;;;;;;;1.77;1.53;;;8.10;55.50;;;;;;5068926;28;20184;-54
2022/03/11 09:57:09;;;;;;;2.40;1.67;;;8.40;54.90;;;;;;5071350;28;20265;-53
2022/03/11 09:59:53;;;;;;;2.67;1.73;;;8.60;55.00;;;;;;5070939;28;20185;-52
2022/03/11 10:02:41;;;;;;;3.03;1.60;;;9.20;54.00;;;;;;5070608;28;20327;-56
2022/03/11 10:05:50;;;;;;;1.70;1.40;;;9.60;53.30;;;;;;5068723;28;20201;-55
2022/03/11 10:08:42;;;;;;;3.27;1.77;;;9.60;52.50;;;;;;5069157;28;20236;-53
2022/03/11 10:11:27;;;;;;;3.60;1.50;;;9.90;52.00;;;;;;5093679;28;20190;-52
2022/03/11 10:14:11;;;;;;;2.80;1.67;;;9.70;51.80;;;;;;5071666;28;20267;-52
2022/03/11 10:16:58;;;;;;;2.40;1.83;;;10.40;51.60;;;;;;5080130;28;20194;-54
2022/03/11 10:20:02;;;;;;;2.00;1.57;;;10.80;50.60;;;;;;5076466;28;20194;-52
2022/03/11 10:22:47;;;;;;;1.67;1.43;;;10.10;50.60;;;;;;5073494;28;20243;-52
2022/03/11 10:25:31;;;;;;;4.50;1.53;;;10.50;50.70;;;;;;5070702;28;20265;-57
2022/03/11 10:28:16;;;;;;;3.57;1.87;;;10.80;49.80;;;;;;5071126;28;20258;-53
2022/03/11 10:31:10;;;;;;;3.00;2.30;;;11.40;49.90;;;;;;5059132;28;20228;-54
2022/03/11 10:34:17;;;;;;;3.40;1.80;;;11.90;49.80;;;;;;5070093;28;20336;-59
2022/03/11 10:37:07;;;;;;;3.97;2.30;;;11.30;48.70;;;;;;5073159;28;20294;-57
2022/03/11 10:39:52;;;;;;;4.30;1.87;;;11.60;48.50;;;;;;5072564;28;20208;-54
2022/03/11 10:42:36;;;;;;;5.50;2.77;;;11.90;48.50;;;;;;5069399;28;20243;-61
2022/03/11 10:45:21;;;;;;;3.27;2.53;;;11.60;48.20;;;;;;5051789;28;20204;-50
2022/03/11 10:48:06;;;;;;;2.57;2.00;;;11.50;48.00;;;;;;5052333;28;20297;-53
2022/03/11 10:50:50;;;;;;;3.77;2.33;;;12.10;47.80;;;;;;5070735;28;20220;-56
2022/03/11 10:53:38;;;;;;;3.87;2.53;;;12.20;47.90;;;;;;5071907;28;20204;-59
2022/03/11 10:56:26;;;;;;;4.83;2.83;;;12.90;47.80;;;;;;5071838;28;20208;-59
2022/03/11 10:59:19;;;;;;;4.77;2.67;;;12.80;46.30;;;;;;5068888;28;20387;-59
2022/03/11 11:02:04;;;;;;;3.27;2.20;;;13.70;45.90;;;;;;5074604;28;20225;-55
2022/03/11 11:04:48;;;;;;;16.07;7.43;;;13.20;45.00;;;;;;5087578;28;20322;-60
2022/03/11 11:07:34;;;;;;;6.93;4.30;;;13.10;46.00;;;;;;5056669;28;20193;-60
2022/03/11 11:10:21;;;;;;;3.43;2.27;;;13.10;45.10;;;;;;5068556;28;20320;-54
2022/03/11 11:13:09;;;;;;;3.03;2.07;;;13.40;45.40;;;;;;5080607;28;20207;-62
2022/03/11 11:15:59;;;;;;;3.00;2.70;;;13.80;45.30;;;;;;5089322;28;20196;-58
2022/03/11 11:18:46;;;;;;;5.32;3.95;;;14.20;44.10;;;;;;5092672;28;20290;-53
2022/03/11 11:21:31;;;;;;;12.35;6.10;;;14.10;43.60;;;;;;5090444;28;20272;-65
2022/03/11 11:24:18;;;;;;;2.95;2.28;;;14.70;42.80;;;;;;5091413;28;20226;-51
2022/03/11 11:27:02;;;;;;;3.17;2.88;;;16.30;41.80;;;;;;5092780;28;20192;-54
2022/03/11 11:29:51;;;;;;;3.97;2.45;;;15.30;41.00;;;;;;5089236;28;20224;-65
2022/03/11 11:32:38;;;;;;;2.60;2.10;;;14.30;41.30;;;;;;5092827;28;20237;-62
2022/03/11 11:35:32;;;;;;;2.13;1.80;;;13.90;41.60;;;;;;5092666;28;20237;-66
2022/03/11 11:38:33;;;;;;;2.23;2.03;;;13.60;42.00;;;;;;5083409;28;20224;-66
2022/03/11 11:41:26;;;;;;;2.60;1.83;;;12.60;42.90;;;;;;5086354;28;20246;-64
2022/03/11 11:44:10;;;;;;;3.23;1.70;;;12.20;43.30;;;;;;5086912;28;20201;-63
2022/03/11 11:47:25;;;;;;;2.73;1.50;;;11.00;45.00;;;;;;5083309;28;20200;-62
2022/03/11 11:50:17;;;;;;;2.33;1.43;;;10.30;45.80;;;;;;5085156;28;20260;-66
2022/03/11 11:53:01;;;;;;;1.77;1.60;;;10.10;46.30;;;;;;5087196;28;20257;-66
2022/03/11 11:55:46;;;;;;;1.10;0.90;;;10.00;46.90;;;;;;5082979;28;20276;-65
2022/03/11 11:58:32;;;;;;;0.93;0.90;;;10.00;47.00;;;;;;5085986;28;20188;-66
2022/03/11 12:01:49;;;;;;;1.43;1.03;;;9.80;47.00;;;;;;5086091;28;20242;-68
2022/03/11 12:04:40;;;;;;;1.63;1.23;;;9.80;46.70;;;;;;5083133;28;20216;-64
2022/03/11 12:07:45;;;;;;;2.23;1.67;;;9.70;46.90;;;;;;5084986;28;20216;-62
2022/03/11 12:10:30;;;;;;;2.30;1.40;;;9.70;47.10;;;;;;5075060;28;20240;-61
2022/03/11 12:13:37;;;;;;;2.00;1.23;;;9.80;47.80;;;;;;5061213;28;20198;-65
2022/03/11 12:16:26;;;;;;;1.67;1.50;;;10.00;47.20;;;;;;5062263;28;20210;-63
2022/03/11 12:19:36;;;;;;;1.87;1.37;;;10.00;47.10;;;;;;5064321;28;20197;-65
2022/03/11 12:22:29;;;;;;;1.23;1.00;;;10.00;46.80;;;;;;5095479;28;20185;-64
2022/03/11 12:25:14;;;;;;;2.27;1.20;;;10.00;46.70;;;;;;5064334;28;20193;-58
2022/03/11 12:28:01;;;;;;;1.20;1.10;;;10.10;46.20;;;;;;5059678;28;20239;-60
2022/03/11 12:30:48;;;;;;;1.23;1.10;;;10.10;45.90;;;;;;5062633;28;20426;-56
2022/03/11 12:33:38;;;;;;;0.97;0.97;;;10.20;46.60;;;;;;5064276;28;20352;-56
2022/03/11 12:36:24;;;;;;;0.90;0.90;;;10.30;46.00;;;;;;5071746;28;20285;-55
2022/03/11 12:39:09;;;;;;;1.63;0.90;;;10.40;44.40;;;;;;5071057;28;20193;-57
2022/03/11 12:41:53;;;;;;;0.90;0.90;;;10.50;44.20;;;;;;5059726;28;20236;-63
2022/03/11 12:44:45;;;;;;;4.73;1.27;;;10.70;43.90;;;;;;5070005;28;20211;-53
2022/03/11 12:47:39;;;;;;;2.23;0.93;;;10.90;44.50;;;;;;5068406;28;20197;-61
2022/03/11 12:50:24;;;;;;;1.53;1.17;;;10.80;42.90;;;;;;5072656;28;20298;-64
2022/03/11 12:53:10;;;;;;;2.53;1.20;;;10.80;43.50;;;;;;5070933;28;20322;-66
2022/03/11 12:55:57;;;;;;;5.80;2.23;;;10.90;42.90;;;;;;5067356;28;20204;-65
2022/03/11 12:58:42;;;;;;;1.73;0.90;;;11.00;44.10;;;;;;5072816;28;20196;-65
2022/03/11 13:01:27;;;;;;;1.13;1.07;;;11.10;43.30;;;;;;5068184;28;20200;-67
2022/03/11 13:04:11;;;;;;;1.80;0.97;;;11.10;43.10;;;;;;5070412;28;20197;-52
2022/03/11 13:07:02;;;;;;;1.13;0.80;;;11.20;41.90;;;;;;5073666;28;20261;-66
2022/03/11 13:09:46;;;;;;;1.80;1.00;;;11.30;42.10;;;;;;5072021;28;20225;-64
2022/03/11 13:12:31;;;;;;;2.50;1.00;;;11.60;41.60;;;;;;5067745;28;20193;-67
2022/03/11 13:15:26;;;;;;;1.00;0.70;;;11.60;41.70;;;;;;5071897;28;20201;-66
2022/03/11 13:18:15;;;;;;;1.13;1.03;;;11.50;41.80;;;;;;5070994;28;20243;-61
2022/03/11 13:21:03;;;;;;;0.93;0.80;;;11.60;42.30;;;;;;5070774;28;20208;-58
2022/03/11 13:23:49;;;;;;;1.00;0.87;;;11.70;42.60;;;;;;5072554;28;20204;-59
2022/03/11 13:26:33;;;;;;;0.90;0.83;;;11.80;43.10;;;;;;5070083;28;20232;-56
2022/03/11 13:29:17;;;;;;;1.00;0.93;;;11.90;43.10;;;;;;5070758;28;20239;-58
2022/03/11 13:32:05;;;;;;;1.00;0.80;;;12.10;42.40;;;;;;5068962;28;20251;-54
2022/03/11 13:34:49;;;;;;;0.80;0.80;;;12.30;41.70;;;;;;5068887;28;20204;-63
2022/03/11 13:37:43;;;;;;;1.10;1.07;;;12.20;41.80;;;;;;5069215;28;20265;-51
2022/03/11 13:40:27;;;;;;;6.80;0.97;;;12.40;40.90;;;;;;5070688;28;20201;-59
2022/03/11 13:43:12;;;;;;;2.73;1.10;;;12.20;40.40;;;;;;5064822;28;20275;-53
2022/03/11 13:45:57;;;;;;;1.50;1.00;;;12.50;40.60;;;;;;5070359;28;20323;-52
2022/03/11 13:48:41;;;;;;;0.87;0.87;;;12.90;41.00;;;;;;5067227;28;20286;-55
2022/03/11 13:51:42;;;;;;;2.63;0.60;;;13.40;39.80;;;;;;5064140;28;20225;-55
2022/03/11 13:54:39;;;;;;;0.80;0.80;;;15.80;38.30;;;;;;5072356;28;20267;-53
2022/03/11 13:57:26;;;;;;;2.67;1.33;;;18.80;36.60;;;;;;5070025;28;20252;-52
2022/03/11 14:00:20;;;;;;;1.88;1.08;;;19.90;33.50;;;;;;5068125;28;20192;-52
2022/03/11 14:03:22;;;;;;;1.20;1.10;;;19.70;33.00;;;;;;5068722;28;20289;-53
2022/03/11 14:06:07;;;;;;;4.72;1.08;;;20.30;32.10;;;;;;5070878;28;20227;-61
2022/03/11 14:08:51;;;;;;;2.42;1.00;;;20.50;31.70;;;;;;5068415;28;20181;-65
2022/03/11 14:11:36;;;;;;;0.90;0.90;;;20.70;32.30;;;;;;5068441;28;20193;-52
2022/03/11 14:14:30;;;;;;;1.02;1.00;;;20.20;31.60;;;;;;5067636;28;20232;-58
2022/03/11 14:17:15;;;;;;;1.20;1.02;;;20.70;32.30;;;;;;5069306;28;20250;-55
2022/03/11 14:20:03;;;;;;;1.85;1.30;;;22.00;31.90;;;;;;5071942;28;20201;-62
2022/03/11 14:22:47;;;;;;;2.47;1.55;;;22.00;31.00;;;;;;5066068;28;20205;-55
2022/03/11 14:25:32;;;;;;;3.78;1.25;;;22.20;30.10;;;;;;5071208;28;20216;-48
2022/03/11 14:28:19;;;;;;;1.35;1.25;;;23.00;30.40;;;;;;5072003;28;20212;-52